AirNav   Air Wisconsin Up To $57,000 Bonus
 
 1446 users online  

34IL G Bray Airport
Lewistown, Illinois, USA

GOING TO LEWISTOWN?


FAA INFORMATION EFFECTIVE 01 DECEMBER 2022

Location

FAA Identifier: 34IL
Lat/Long: 40-21-45.1510N 090-06-30.4260W
40-21.752517N 090-06.507100W
40.3625419,-90.1084517
(estimated)
Elevation: 550 ft. / 168 m (estimated)
Variation: 01E (1985)
From city: 3 miles SE of LEWISTOWN, IL
Time zone: UTC -6 (UTC -5 during Daylight Saving Time)
Zip code: 61542

Airport Operations

Airport use: Private use. Permission required prior to landing
Activation date: 06/1969
Control tower: no
ARTCC: KANSAS CITY CENTER
FSS: KANKAKEE FLIGHT SERVICE STATION
Attendance: UNATNDD
Wind indicator: yes
Segmented circle: no

Nearby radio navigation aids

VOR radial/distance  VOR name  Freq  Var
PIAr213/23.9PEORIA VORTAC115.2004E
SPIr329/37.1SPINNER VORTAC112.7001W

 
NDB name  Hdg/Dist  Freq  Var  ID
MACOMB113/22.725101EJZY .--- --.. -.--
ABRAHAM289/37.332900EAAA .- .- .-

Airport Services

Airframe service: NONE
Powerplant service: NONE

Runway Information

Runway 16/34

Dimensions: 2000 x 90 ft. / 610 x 27 m
Surface: turf
RUNWAY 16  RUNWAY 34
Traffic pattern: leftleft

Airport Ownership and Management from official FAA records

Ownership: Privately-owned
Owner: GENE D. BRAY
P.O. BOX 608
LAKE ZURICH, IL 60047
Phone 708-438-6682
Manager: GENE D. BRAY
RFD BOX 2421
LONG GROVE, IL 60047
Phone 708-438-6682

Airport Operational Statistics

Aircraft based on the field: 1
Single engine airplanes: 1
    

Additional Remarks

FOR CD CTC ST LOUIS APCH AT 314-890-1017.

Instrument Procedures

There are no published instrument procedures at 34IL.

Some nearby airports with instrument procedures:

KCTK - Ingersoll Airport (12 nm N)
C15 - Pekin Municipal Airport (21 nm E)
KPIA - General Downing - Peoria International Airport (26 nm NE)
KMQB - Macomb Municipal Airport (27 nm W)
3MY - Mount Hawley Auxiliary Airport (34 nm NE)
 
Loc | Ops | Rwys | IFR | FBO | Links
Com | Nav | Svcs | Stats | Notes
Area around 34IL (G Bray Airport)
 
Road maps at: MapQuest Bing Google
 
Aerial photo
No photo
 
Sectional chart

 
Airport distance calculator
Flying to G Bray Airport? Find the distance to fly.

From to 34IL

Sunrise and sunset
Times for 07-Dec-2022
 Local
(UTC-6)
 Zulu
(UTC)
Morning civil twilight06:4012:40
Sunrise07:1113:11
Sunset16:3322:33
Evening civil twilight17:0323:03

Current date and time
Zulu (UTC)  07-Dec-2022 14:53:27
Local (UTC-6)  07-Dec-2022 08:53:27
 
METAR
KMQB 
26nm W 
071435Z AUTO 00000KT M1/4SM FG OVC002 01/01 A3025 RMK AO2 T00050005
KPIA 
27nm NE 
071412Z 15003KT 1 1/2SM BR OVC003 03/03 A3023 RMK AO2 T00330033 $
KIJX 
36nm S 
071435Z AUTO 06003KT 2 1/2SM SCT007 SCT032 04/04 A3024 RMK AO2 T00380038
KSPI 
36nm SE 
071422Z 06005KT 1SM R04/P6000FT BR OVC002 04/03 A3024 RMK AO2 T00440033
KGBG 
37nm NW 
071435Z AUTO 13004KT M1/4SM FG OVC002 01/01 A3024 RMK AO2 T00050005
KAAA 
37nm E 
071435Z AUTO 04004KT 2 1/2SM BR OVC004 04/04 A3025 RMK AO2 T00400040
KI63 
39nm SW 
071435Z AUTO 00000KT 4SM BR CLR 04/04 A3022 RMK AO2 T00410041
TAF
KPIA 
27nm NE 
071121Z 0712/0812 VRB03KT 1SM BR OVC004 TEMPO 0712/0714 1/2SM FG VV002 FM071600 VRB03KT 4SM BR BKN012 FM071800 31005KT P6SM BKN018 FM080000 04003KT P6SM SCT180 BKN250 FM080800 08008KT P6SM BKN180
NOTAMs
Click for the latest NOTAMs
NOTAMs are issued by the DoD/FAA and will open in a separate window not controlled by AirNav.

 

 
 

Would you like to see your business listed on this page?

 If your business provides an interesting product or service to pilots, flight crews, aircraft, or users of the G Bray Airport, you should consider listing it here.  To start the listing process, click on the button below
 
Add a business
 

Other Pages about G Bray Airport

Update a link
 
Copyright © AirNav, LLC. All rights reserved. Privacy Policy  Contact